BIENTÔT MET'MAP
version 2.0 !

Prévue avant fin octobre,
la nouvelle version sera
plus belle, plus complète
et hébergée sur un serveur
3 fois plus puissant...
et toujours gratuite !


Pas compatible ?
Essayez la version Mobile !

SE CONNECTER : | S'inscrire | Disclaimer | Découvrir Orbifly |
Code OACI :

TAF - LGRP Diagoras - 01 Jun 2020 22:31 UTC - Data Source NOAA   


- Altitude de l'aérodrome : 17 ft
- Code IATA : RHO
- Pas de NOTAMs connus.


LGRP - Diagoras

Dernier METAR connu : 2015/08/11 07:50 LGRP 110750Z 26011KT 9999 FEW018 28/20 Q1009 NOSIG
TAF TAF LGRP
Valide du 01 à 18h jusqu'au 02 à 18h UTC


011700Z 0118/0218 VRB05KT 9999 FEW018 SCT025
PROB40
TEMPO 0118/0200 5000 RA SCT010 FEW018TCU BKN025
PROB30
TEMPO 0118/0124 3000 TSRA SCT010 FEW016CB BKN025
BECMG 0202/0204 26010KT

Source NOAA


MET'MAP, la Météo Aéronautique d'un coup d'oeil ! - Copyright ORBIFLY Décembre 2007

Développement & Programmation : Alexandra Zaïnal
Co-Développement : Marc-Olivier Méhu
Soutien technique & logistique : Manuel Goepfert
Conception & Financement : Baudouin d'Aumeries